createdAt,value
2018-10-09T00:01:59.796Z,15.17
2018-10-09T00:04:27.931Z,16.63
2018-10-09T00:06:56.093Z,15.67
2018-10-09T00:09:24.208Z,16.50
2018-10-09T00:11:52.365Z,16.03
2018-10-09T00:14:20.522Z,13.13
2018-10-09T00:16:48.664Z,15.00
2018-10-09T00:19:16.814Z,15.47
2018-10-09T00:21:44.952Z,17.27
2018-10-09T00:24:13.128Z,15.27
2018-10-09T00:26:41.285Z,17.33
2018-10-09T00:29:09.508Z,18.63
2018-10-09T00:31:37.648Z,21.13
2018-10-09T00:34:05.851Z,21.97
2018-10-09T00:36:34.250Z,18.27
2018-10-09T00:39:02.402Z,17.87
2018-10-09T00:41:30.559Z,17.90
2018-10-09T00:43:58.712Z,16.10
2018-10-09T00:46:26.820Z,24.43
2018-10-09T00:48:55.058Z,16.60
2018-10-09T00:51:23.219Z,17.50
2018-10-09T00:53:51.440Z,17.63
2018-10-09T00:56:19.592Z,20.13
2018-10-09T00:58:47.726Z,21.13
2018-10-09T01:01:15.892Z,19.37
2018-10-09T01:03:44.042Z,19.53
2018-10-09T01:06:12.152Z,16.57
2018-10-09T01:08:40.284Z,16.00
2018-10-09T01:11:08.450Z,21.07
2018-10-09T01:13:36.606Z,17.97
2018-10-09T01:16:04.742Z,16.13
2018-10-09T01:18:32.876Z,19.20
2018-10-09T01:21:01.020Z,23.67
2018-10-09T01:23:29.304Z,16.63
2018-10-09T01:25:57.478Z,17.17
2018-10-09T01:28:25.648Z,16.57
2018-10-09T01:30:53.818Z,20.97
2018-10-09T01:33:22.018Z,16.43
2018-10-09T01:35:50.194Z,18.00
2018-10-09T01:38:18.340Z,18.37
2018-10-09T01:40:46.474Z,18.07
2018-10-09T01:43:14.722Z,14.30
2018-10-09T01:45:43.035Z,22.17
2018-10-09T01:48:11.168Z,17.70
2018-10-09T01:50:39.370Z,16.17
2018-10-09T01:53:07.500Z,20.05
2018-10-09T01:55:35.677Z,20.00
2018-10-09T01:58:03.765Z,16.30
2018-10-09T02:00:31.908Z,20.17
2018-10-09T02:03:00.096Z,20.70
2018-10-09T02:05:28.206Z,18.27
2018-10-09T02:07:56.360Z,17.97
2018-10-09T02:10:24.512Z,17.00
2018-10-09T02:12:52.762Z,19.93
2018-10-09T02:15:20.908Z,21.70
2018-10-09T02:17:49.032Z,21.30
2018-10-09T02:20:17.216Z,19.00
2018-10-09T02:22:45.357Z,19.98
2018-10-09T02:25:13.502Z,19.17
2018-10-09T02:27:41.695Z,19.70
2018-10-09T02:30:10.237Z,18.95
2018-10-09T02:32:38.456Z,17.45
2018-10-09T02:35:06.616Z,19.95
2018-10-09T02:37:34.830Z,20.92
2018-10-09T02:40:03.449Z,22.27
2018-10-09T02:42:31.590Z,16.70
2018-10-09T02:45:00.039Z,28.67
2018-10-09T02:47:28.223Z,19.48
2018-10-09T02:49:56.344Z,20.33
2018-10-09T02:52:24.484Z,20.70
2018-10-09T02:54:52.605Z,18.50
2018-10-09T02:57:20.735Z,21.02
2018-10-09T02:59:48.934Z,27.32
2018-10-09T03:02:17.046Z,21.70
2018-10-09T03:04:46.177Z,25.35
2018-10-09T03:07:14.296Z,19.55
2018-10-09T03:09:42.450Z,29.55
2018-10-09T03:12:10.660Z,19.55
2018-10-09T03:14:38.856Z,24.05
2018-10-09T03:17:07.690Z,20.70
2018-10-09T03:19:36.002Z,22.17
2018-10-09T03:22:04.141Z,26.82
2018-10-09T03:24:32.253Z,22.40
2018-10-09T03:27:00.506Z,21.80
2018-10-09T03:29:28.664Z,19.48
2018-10-09T03:31:57.610Z,26.57
2018-10-09T03:34:25.873Z,24.80
2018-10-09T03:36:54.152Z,18.70
2018-10-09T03:39:22.285Z,21.65
2018-10-09T03:41:50.496Z,22.50
2018-10-09T03:44:25.713Z,30.08
2018-10-09T03:46:53.855Z,26.45
2018-10-09T03:49:22.017Z,29.57
2018-10-09T03:51:50.177Z,28.75
2018-10-09T03:54:18.325Z,33.38
2018-10-09T03:56:46.473Z,34.03
2018-10-09T03:59:14.611Z,32.17
2018-10-09T04:01:42.717Z,31.07
2018-10-09T04:04:10.879Z,25.23
2018-10-09T04:06:39.015Z,26.87
2018-10-09T04:09:09.673Z,26.00
2018-10-09T04:11:37.783Z,22.13
2018-10-09T04:14:05.959Z,25.87
2018-10-09T04:16:34.147Z,20.33
2018-10-09T04:19:02.371Z,16.83
2018-10-09T04:21:30.539Z,24.67
2018-10-09T04:23:58.673Z,24.12
2018-10-09T04:26:26.811Z,19.27
2018-10-09T04:28:54.975Z,18.60
2018-10-09T04:31:23.086Z,23.27
2018-10-09T04:33:51.263Z,18.32
2018-10-09T04:36:19.405Z,21.10
2018-10-09T04:38:47.555Z,25.62
2018-10-09T04:41:15.700Z,20.90
2018-10-09T04:43:44.586Z,27.65
2018-10-09T04:46:12.809Z,25.30
2018-10-09T04:48:40.963Z,22.73
2018-10-09T04:51:09.103Z,34.00
2018-10-09T04:53:37.422Z,28.10
2018-10-09T04:56:05.587Z,21.60
2018-10-09T04:58:33.789Z,25.10
2018-10-09T05:01:01.982Z,23.90
2018-10-09T05:03:30.842Z,32.58
2018-10-09T05:06:03.147Z,29.45
2018-10-09T05:08:31.296Z,27.07
2018-10-09T05:10:59.474Z,27.37
2018-10-09T05:13:27.643Z,24.72
2018-10-09T05:15:55.833Z,23.32
2018-10-09T05:18:24.032Z,21.00
2018-10-09T05:20:52.201Z,20.90
2018-10-09T05:23:20.427Z,27.37
2018-10-09T05:25:48.576Z,31.25
2018-10-09T05:28:16.799Z,24.87
2018-10-09T05:30:44.981Z,29.92
2018-10-09T05:33:13.088Z,30.10
2018-10-09T05:35:41.359Z,26.27
2018-10-09T05:38:09.571Z,28.02
2018-10-09T05:40:38.501Z,36.70
2018-10-09T05:43:06.871Z,35.30
2018-10-09T05:45:39.969Z,33.92
2018-10-09T05:48:09.056Z,37.80
2018-10-09T05:50:37.233Z,38.45
2018-10-09T05:53:05.342Z,45.92
2018-10-09T05:55:33.683Z,45.25
2018-10-09T05:58:05.889Z,40.93
2018-10-09T06:00:34.011Z,42.77
2018-10-09T06:03:02.192Z,49.07
2018-10-09T06:05:30.993Z,53.57
2018-10-09T06:07:59.169Z,64.37
2018-10-09T06:10:27.341Z,56.67
2018-10-09T06:12:55.542Z,53.50
2018-10-09T06:15:24.387Z,50.10
2018-10-09T06:17:53.359Z,57.43
2018-10-09T06:20:22.117Z,60.83
2018-10-09T06:22:50.541Z,51.80
2018-10-09T06:25:18.865Z,50.47
2018-10-09T06:27:47.562Z,49.90
2018-10-09T06:30:15.772Z,44.13
2018-10-09T06:32:44.006Z,59.53
2018-10-09T06:35:12.166Z,57.50
2018-10-09T06:37:40.315Z,54.50
2018-10-09T06:40:08.460Z,52.10
2018-10-09T06:42:36.716Z,57.43
2018-10-09T06:45:04.833Z,54.57
2018-10-09T06:47:33.095Z,61.00
2018-10-09T06:50:01.324Z,50.63
2018-10-09T06:52:29.563Z,70.20
2018-10-09T06:54:57.841Z,54.10
2018-10-09T06:57:26.529Z,48.87
2018-10-09T06:59:54.875Z,56.03
2018-10-09T07:02:23.056Z,53.63
2018-10-09T07:04:51.182Z,58.60
2018-10-09T07:07:19.376Z,56.57
2018-10-09T07:09:47.552Z,54.67
2018-10-09T07:12:15.810Z,56.77
2018-10-09T07:14:44.278Z,74.10
2018-10-09T07:17:12.549Z,67.13
2018-10-09T07:19:40.724Z,73.50
2018-10-09T07:22:08.852Z,65.83
2018-10-09T07:24:37.091Z,76.50
2018-10-09T07:27:05.316Z,73.53
2018-10-09T07:29:48.340Z,61.20
2018-10-09T07:32:16.552Z,63.90
2018-10-09T07:34:45.004Z,74.67
2018-10-09T07:37:13.833Z,67.87
2018-10-09T07:39:42.092Z,70.33
2018-10-09T07:42:10.288Z,68.77
2018-10-09T07:44:38.767Z,69.97
2018-10-09T07:47:06.945Z,64.70
2018-10-09T07:49:35.172Z,69.13
2018-10-09T07:52:03.363Z,56.87
2018-10-09T07:54:31.585Z,60.70
2018-10-09T07:56:59.723Z,66.37
2018-10-09T08:02:12.561Z,61.50
2018-10-09T08:04:40.839Z,65.73
2018-10-09T08:07:09.115Z,60.23
2018-10-09T08:09:37.388Z,54.97
2018-10-09T08:12:05.728Z,56.27
2018-10-09T08:14:34.322Z,57.37
2018-10-09T08:17:02.560Z,56.63
2018-10-09T08:19:30.866Z,58.77
2018-10-09T08:21:59.063Z,51.97
2018-10-09T08:24:27.250Z,54.77
2018-10-09T08:26:55.486Z,58.80
2018-10-09T08:29:23.909Z,52.37
2018-10-09T08:31:52.498Z,54.00
2018-10-09T08:34:21.430Z,58.13
2018-10-09T08:36:49.640Z,55.17
2018-10-09T08:39:17.866Z,50.90
2018-10-09T08:41:46.080Z,60.10
2018-10-09T08:44:14.249Z,56.97
2018-10-09T08:46:44.321Z,52.83
2018-10-09T08:49:12.875Z,59.73
2018-10-09T08:51:41.140Z,57.30
2018-10-09T08:54:09.327Z,50.00
2018-10-09T08:56:37.515Z,51.30
2018-10-09T08:59:05.776Z,55.90
2018-10-09T09:01:33.954Z,49.07
2018-10-09T09:04:02.348Z,53.93
2018-10-09T09:06:30.611Z,50.70
2018-10-09T09:08:58.816Z,45.73
2018-10-09T09:11:27.135Z,49.13
2018-10-09T09:13:55.656Z,54.67
2018-10-09T09:16:23.817Z,46.77
2018-10-09T09:18:51.974Z,41.37
2018-10-09T09:21:20.333Z,47.93
2018-10-09T09:23:48.520Z,43.07
2018-10-09T09:26:16.811Z,46.23
2018-10-09T09:28:45.024Z,50.73
2018-10-09T09:31:13.212Z,44.00
2018-10-09T09:33:41.390Z,42.90
2018-10-09T09:36:09.518Z,42.67
2018-10-09T09:38:37.663Z,49.87
2018-10-09T09:41:06.008Z,49.80
2018-10-09T09:43:34.195Z,49.97
2018-10-09T09:46:02.417Z,37.40
2018-10-09T09:48:30.589Z,42.53
2018-10-09T09:50:58.739Z,39.10
2018-10-09T09:53:26.909Z,51.13
2018-10-09T09:55:55.083Z,39.57
2018-10-09T09:58:23.359Z,45.53
2018-10-09T10:00:56.019Z,40.77
2018-10-09T10:03:24.184Z,44.17
2018-10-09T10:05:52.429Z,39.07
2018-10-09T10:08:20.606Z,37.07
2018-10-09T10:10:48.774Z,34.03
2018-10-09T10:13:17.017Z,37.97
2018-10-09T10:15:45.189Z,43.93
2018-10-09T10:18:13.665Z,39.63
2018-10-09T10:20:41.806Z,34.40
2018-10-09T10:23:10.152Z,43.40
2018-10-09T10:25:38.428Z,34.03
2018-10-09T10:28:06.808Z,31.97
2018-10-09T10:30:34.998Z,43.63
2018-10-09T10:33:03.176Z,34.70
2018-10-09T10:35:31.460Z,32.87
2018-10-09T10:37:59.663Z,36.57
2018-10-09T10:40:27.826Z,34.07
2018-10-09T10:42:56.042Z,34.90
2018-10-09T10:45:24.233Z,42.03
2018-10-09T10:47:52.420Z,32.47
2018-10-09T10:50:20.638Z,28.10
2018-10-09T10:52:48.826Z,27.30
2018-10-09T10:55:17.079Z,27.33
2018-10-09T10:57:45.285Z,32.97
2018-10-09T11:00:13.423Z,27.30
2018-10-09T11:02:41.556Z,24.43
2018-10-09T11:05:09.747Z,24.03
2018-10-09T11:07:38.412Z,24.93
2018-10-09T11:10:06.904Z,27.53
2018-10-09T11:12:35.122Z,20.30
2018-10-09T11:15:03.286Z,23.13
2018-10-09T11:17:31.553Z,19.50
2018-10-09T11:20:00.301Z,27.27
2018-10-09T11:22:28.576Z,22.83
2018-10-09T11:24:56.801Z,18.57
2018-10-09T11:27:25.013Z,18.43
2018-10-09T11:29:53.225Z,20.87
2018-10-09T11:32:22.092Z,18.13
2018-10-09T11:34:50.317Z,23.60
2018-10-09T11:37:18.533Z,17.00
2018-10-09T11:39:46.724Z,17.47
2018-10-09T11:42:14.945Z,17.60
2018-10-09T11:44:43.119Z,17.30
2018-10-09T11:47:11.353Z,16.87
2018-10-09T11:52:17.448Z,15.67
2018-10-09T11:54:45.639Z,16.70
2018-10-09T11:57:13.869Z,17.87
2018-10-09T11:59:48.780Z,18.23
2018-10-09T12:02:17.026Z,19.90
2018-10-09T12:04:45.218Z,24.97
2018-10-09T12:07:13.348Z,19.87
2018-10-09T12:09:42.199Z,15.00
2018-10-09T12:12:10.431Z,18.70
2018-10-09T12:14:38.645Z,24.47
2018-10-09T12:17:07.327Z,17.07
2018-10-09T12:19:35.795Z,11.83
2018-10-09T12:22:03.995Z,20.77
2018-10-09T12:24:32.159Z,18.43
2018-10-09T12:27:00.309Z,17.43
2018-10-09T12:29:28.500Z,19.43
2018-10-09T12:31:56.652Z,14.93
2018-10-09T12:37:01.602Z,17.67
2018-10-09T12:39:29.795Z,14.90
2018-10-09T12:41:58.037Z,15.37
2018-10-09T12:44:28.052Z,15.80
2018-10-09T12:46:56.225Z,19.07
2018-10-09T12:49:24.403Z,20.83
2018-10-09T12:51:53.167Z,17.23
2018-10-09T12:54:21.445Z,24.00
2018-10-09T12:56:49.640Z,15.83
2018-10-09T12:59:18.015Z,13.50
2018-10-09T13:01:46.269Z,15.33
2018-10-09T13:04:14.477Z,18.67
2018-10-09T13:06:42.738Z,14.77
2018-10-09T13:09:12.643Z,14.77
2018-10-09T13:11:40.810Z,40.23
2018-10-09T13:14:08.970Z,17.83
2018-10-09T13:16:37.187Z,204.27
2018-10-09T13:19:05.597Z,35.47
2018-10-09T13:21:34.030Z,171.90
2018-10-09T13:24:02.050Z,74.03
2018-10-09T13:26:30.247Z,34.63
2018-10-09T13:28:58.456Z,23.10
2018-10-09T13:31:26.652Z,23.67
2018-10-09T13:33:54.872Z,24.80
2018-10-09T13:36:23.025Z,31.13
2018-10-09T13:38:51.173Z,18.80
2018-10-09T13:41:19.300Z,24.40
2018-10-09T13:43:47.540Z,16.83
2018-10-09T13:46:16.212Z,17.73
2018-10-09T13:48:44.408Z,22.13
2018-10-09T13:51:12.580Z,20.80
2018-10-09T13:53:40.805Z,24.53
2018-10-09T13:56:08.959Z,21.97
2018-10-09T13:58:38.840Z,17.80
2018-10-09T14:01:07.408Z,16.73
2018-10-09T14:03:35.566Z,19.50
2018-10-09T14:06:03.837Z,16.10
2018-10-09T14:08:32.060Z,16.73
2018-10-09T14:11:00.233Z,23.53
2018-10-09T14:13:28.422Z,23.77
2018-10-09T14:15:56.591Z,30.63
2018-10-09T14:18:24.872Z,22.80
2018-10-09T14:20:53.070Z,16.77
2018-10-09T14:23:21.307Z,29.37
2018-10-09T14:25:49.513Z,20.90
2018-10-09T14:28:17.752Z,19.77
2018-10-09T14:30:46.663Z,23.90
2018-10-09T14:33:14.791Z,19.47
2018-10-09T14:35:43.585Z,22.83
2018-10-09T14:38:11.795Z,19.33
2018-10-09T14:40:43.348Z,19.43
2018-10-09T14:43:11.532Z,18.93
2018-10-09T14:45:39.792Z,14.63
2018-10-09T14:48:07.997Z,19.67
2018-10-09T14:50:36.233Z,23.70
2018-10-09T14:53:04.441Z,19.53
2018-10-09T14:55:33.032Z,17.33
2018-10-09T14:58:01.195Z,21.70
2018-10-09T15:00:29.441Z,25.57
2018-10-09T15:02:57.698Z,35.27
2018-10-09T15:05:25.890Z,31.17
2018-10-09T15:07:54.044Z,23.80
2018-10-09T15:10:22.305Z,31.93
2018-10-09T15:12:50.486Z,25.70
2018-10-09T15:15:18.724Z,20.83
2018-10-09T15:17:46.850Z,21.70
2018-10-09T15:20:15.554Z,27.63
2018-10-09T15:22:43.854Z,25.90
2018-10-09T15:25:12.050Z,27.60
2018-10-09T15:27:40.202Z,19.63
2018-10-09T15:30:08.466Z,27.97
2018-10-09T15:32:38.657Z,25.37
2018-10-09T15:35:06.797Z,22.10
2018-10-09T15:37:35.010Z,21.77
2018-10-09T15:40:03.895Z,23.83
2018-10-09T15:42:32.114Z,26.83
2018-10-09T15:45:00.218Z,25.83
2018-10-09T15:47:28.504Z,27.03
2018-10-09T15:49:56.701Z,23.03
2018-10-09T15:52:24.973Z,28.63
2018-10-09T15:54:53.243Z,34.73
2018-10-09T15:57:21.455Z,20.10
2018-10-09T15:59:49.729Z,28.13
2018-10-09T16:02:17.921Z,24.10
2018-10-09T16:04:46.115Z,34.10
2018-10-09T16:07:14.310Z,41.47
2018-10-09T16:09:42.480Z,32.90
2018-10-09T16:12:11.151Z,37.47
2018-10-09T16:14:39.952Z,40.87
2018-10-09T16:17:10.566Z,26.23
2018-10-09T16:19:38.779Z,26.00
2018-10-09T16:22:07.006Z,26.30
2018-10-09T16:24:35.158Z,61.57
2018-10-09T16:27:03.329Z,30.77
2018-10-09T16:29:32.733Z,26.03
2018-10-09T16:32:00.934Z,36.27
2018-10-09T16:34:29.111Z,27.27
2018-10-09T16:36:57.454Z,34.50
2018-10-09T16:39:25.945Z,31.73
2018-10-09T16:41:54.760Z,31.20
2018-10-09T16:44:22.920Z,34.10
2018-10-09T16:46:51.175Z,34.40
2018-10-09T16:49:19.781Z,28.80
2018-10-09T16:51:47.998Z,31.80
2018-10-09T16:54:16.150Z,30.30
2018-10-09T16:56:44.323Z,31.50
2018-10-09T16:59:12.529Z,28.07
2018-10-09T17:01:41.416Z,26.83
2018-10-09T17:04:10.420Z,25.93
2018-10-09T17:06:39.408Z,33.23
2018-10-09T17:09:09.323Z,28.60
2018-10-09T17:11:37.930Z,30.67
2018-10-09T17:14:06.237Z,32.93
2018-10-09T17:16:34.380Z,38.30
2018-10-09T17:19:03.865Z,41.40
2018-10-09T17:21:32.021Z,34.70
2018-10-09T17:24:00.815Z,32.07
2018-10-09T17:26:29.027Z,34.40
2018-10-09T17:28:57.300Z,38.67
2018-10-09T17:31:25.643Z,34.47
2018-10-09T17:33:53.895Z,33.70
2018-10-09T17:36:22.329Z,36.27
2018-10-09T17:38:50.899Z,30.80
2018-10-09T17:41:19.263Z,39.10
2018-10-09T18:29:49.739Z,38.57
2018-10-09T18:32:18.010Z,37.77
2018-10-09T18:34:46.567Z,38.20
2018-10-09T18:37:14.811Z,31.37
2018-10-09T18:39:45.163Z,30.53
2018-10-09T18:42:13.371Z,38.67
2018-10-09T18:44:42.072Z,35.90
2018-10-09T18:47:14.851Z,38.83
2018-10-09T18:49:43.710Z,43.30
2018-10-09T18:52:12.342Z,39.23
2018-10-09T18:54:40.561Z,34.63
2018-10-09T18:57:08.792Z,37.53
2018-10-09T18:59:37.041Z,29.03
2018-10-09T19:02:05.373Z,26.60
2018-10-09T19:04:35.678Z,29.83
2018-10-09T19:07:04.214Z,40.37
2018-10-09T19:09:33.096Z,30.70
2018-10-09T19:12:01.621Z,33.20
2018-10-09T19:14:29.893Z,38.20
2018-10-09T19:16:58.106Z,34.33
2018-10-09T19:19:26.664Z,29.90
2018-10-09T19:21:54.875Z,37.40
2018-10-09T19:24:23.152Z,33.00
2018-10-09T19:26:51.388Z,32.17
2018-10-09T19:29:20.130Z,34.47
2018-10-09T19:31:48.471Z,33.17
2018-10-09T19:34:17.291Z,29.80
2018-10-09T19:36:45.562Z,33.00
2018-10-09T19:39:15.327Z,29.67
2018-10-09T19:41:43.546Z,39.73
2018-10-09T19:44:12.114Z,35.37
2018-10-09T19:46:42.080Z,36.70
2018-10-09T19:49:10.947Z,46.77
2018-10-09T19:54:28.864Z,84.37
2018-10-09T19:56:57.178Z,33.77
2018-10-09T19:59:25.452Z,45.00
2018-10-09T20:01:53.620Z,49.83
2018-10-09T20:04:21.916Z,47.30
2018-10-09T20:06:50.139Z,48.37
2018-10-09T20:09:18.395Z,46.13
2018-10-09T20:11:46.680Z,44.87
2018-10-09T20:14:15.356Z,42.67
2018-10-09T20:16:43.804Z,40.77
2018-10-09T20:19:12.599Z,37.77
2018-10-09T20:21:40.774Z,41.30
2018-10-09T20:24:08.975Z,36.23
2018-10-09T20:26:37.241Z,43.30
2018-10-09T20:29:05.749Z,38.57
2018-10-09T20:31:33.993Z,47.20
2018-10-09T20:34:02.178Z,39.70
2018-10-09T20:36:30.436Z,41.80
2018-10-09T20:39:06.503Z,35.73
2018-10-09T20:41:34.792Z,35.17
2018-10-09T20:44:03.018Z,34.87
2018-10-09T20:46:31.165Z,36.20
2018-10-09T20:48:59.344Z,35.97
2018-10-09T20:51:27.523Z,34.33
2018-10-09T20:53:55.714Z,33.63
2018-10-09T20:56:23.910Z,34.83
2018-10-09T20:58:52.076Z,34.40
2018-10-09T21:01:20.247Z,41.07
2018-10-09T21:03:48.468Z,35.50
2018-10-09T21:06:16.785Z,33.20
2018-10-09T21:08:44.957Z,38.43
2018-10-09T21:11:13.216Z,33.00
2018-10-09T21:13:41.589Z,34.17
2018-10-09T21:16:10.386Z,36.33
2018-10-09T21:18:38.584Z,36.83
2018-10-09T21:21:07.219Z,38.07
2018-10-09T21:23:35.734Z,34.03
2018-10-09T21:26:03.898Z,35.53
2018-10-09T21:28:32.048Z,32.37
2018-10-09T21:31:01.161Z,43.83
2018-10-09T21:33:29.364Z,33.20
2018-10-09T21:35:57.530Z,35.37
2018-10-09T21:38:25.958Z,39.67
2018-10-09T21:40:54.137Z,41.13
2018-10-09T21:43:22.348Z,36.57
2018-10-09T21:45:50.541Z,34.70
2018-10-09T21:48:18.737Z,40.13
2018-10-09T21:50:46.864Z,38.23
2018-10-09T21:53:15.071Z,43.77
2018-10-09T21:55:43.212Z,37.93
2018-10-09T21:58:11.422Z,48.87
2018-10-09T22:00:45.058Z,45.67
2018-10-09T22:03:13.372Z,48.93
2018-10-09T22:05:41.606Z,44.00
2018-10-09T22:08:09.873Z,40.23
2018-10-09T22:10:38.027Z,41.30
2018-10-09T22:13:06.419Z,42.17
2018-10-09T22:15:34.624Z,46.93
2018-10-09T22:18:02.820Z,42.53
2018-10-09T22:20:30.993Z,44.00
2018-10-09T22:22:59.143Z,43.73
2018-10-09T22:25:27.315Z,40.23
2018-10-09T22:27:56.100Z,42.07
2018-10-09T22:30:24.275Z,47.43
2018-10-09T22:32:52.410Z,45.27
2018-10-09T22:35:20.590Z,40.70
2018-10-09T22:37:48.777Z,47.60
2018-10-09T22:40:16.992Z,38.67
2018-10-09T22:42:45.125Z,42.60
2018-10-09T22:45:13.319Z,44.47
2018-10-09T22:47:41.768Z,41.53
2018-10-09T22:50:09.907Z,38.57
2018-10-09T22:52:38.035Z,48.03
2018-10-09T22:55:06.890Z,41.97
2018-10-09T22:57:35.134Z,43.47
2018-10-09T23:00:03.308Z,43.57
2018-10-09T23:02:31.409Z,41.97
2018-10-09T23:04:59.557Z,43.03
2018-10-09T23:07:27.708Z,37.80
2018-10-09T23:09:55.838Z,46.70
2018-10-09T23:12:23.953Z,39.47
2018-10-09T23:14:52.165Z,37.03
2018-10-09T23:17:20.312Z,37.70
2018-10-09T23:19:48.449Z,40.50
2018-10-09T23:22:16.603Z,46.10
2018-10-09T23:24:44.741Z,48.13
2018-10-09T23:27:13.181Z,42.87
2018-10-09T23:29:41.326Z,42.57
2018-10-09T23:32:09.474Z,41.30
2018-10-09T23:34:37.609Z,42.73
2018-10-09T23:37:05.746Z,43.27
2018-10-09T23:39:33.881Z,46.30
2018-10-09T23:42:02.056Z,42.47
2018-10-09T23:44:30.236Z,37.30
2018-10-09T23:46:58.402Z,39.73
2018-10-09T23:49:26.550Z,40.97
2018-10-09T23:51:54.673Z,44.90
2018-10-09T23:54:22.869Z,38.77
2018-10-09T23:56:51.024Z,42.37
2018-10-09T23:59:19.241Z,39.00
